sensor_id;sensor_type;location;lat;lon;timestamp;P1;durP1;ratioP1;P2;durP2;ratioP2
30233;SDS011;17046;52.074;4.748;2022-10-16T00:01:09;6.77;;;1.70;;
30233;SDS011;17046;52.074;4.748;2022-10-16T00:03:37;5.90;;;1.40;;
30233;SDS011;17046;52.074;4.748;2022-10-16T00:06:03;2.83;;;1.07;;
30233;SDS011;17046;52.074;4.748;2022-10-16T00:08:29;5.77;;;1.40;;
30233;SDS011;17046;52.074;4.748;2022-10-16T00:11:05;6.43;;;1.50;;
30233;SDS011;17046;52.074;4.748;2022-10-16T00:13:37;6.40;;;1.33;;
30233;SDS011;17046;52.074;4.748;2022-10-16T00:16:04;4.83;;;1.23;;
30233;SDS011;17046;52.074;4.748;2022-10-16T00:18:30;7.00;;;1.67;;
30233;SDS011;17046;52.074;4.748;2022-10-16T00:21:01;4.13;;;1.60;;
30233;SDS011;17046;52.074;4.748;2022-10-16T00:23:28;4.33;;;1.50;;
30233;SDS011;17046;52.074;4.748;2022-10-16T00:25:54;4.17;;;1.20;;
30233;SDS011;17046;52.074;4.748;2022-10-16T00:28:23;3.43;;;1.37;;
30233;SDS011;17046;52.074;4.748;2022-10-16T00:30:48;4.17;;;1.10;;
30233;SDS011;17046;52.074;4.748;2022-10-16T00:33:14;2.43;;;1.40;;
30233;SDS011;17046;52.074;4.748;2022-10-16T00:35:40;5.13;;;1.30;;
30233;SDS011;17046;52.074;4.748;2022-10-16T00:38:05;2.90;;;1.40;;
30233;SDS011;17046;52.074;4.748;2022-10-16T00:40:31;3.77;;;1.20;;
30233;SDS011;17046;52.074;4.748;2022-10-16T00:42:56;3.93;;;1.40;;
30233;SDS011;17046;52.074;4.748;2022-10-16T00:45:22;4.60;;;1.20;;
30233;SDS011;17046;52.074;4.748;2022-10-16T00:47:48;6.07;;;1.47;;
30233;SDS011;17046;52.074;4.748;2022-10-16T00:50:18;2.60;;;0.77;;
30233;SDS011;17046;52.074;4.748;2022-10-16T00:52:51;3.10;;;0.80;;
30233;SDS011;17046;52.074;4.748;2022-10-16T00:55:17;5.50;;;1.73;;
30233;SDS011;17046;52.074;4.748;2022-10-16T00:57:43;2.10;;;0.90;;
30233;SDS011;17046;52.074;4.748;2022-10-16T01:00:10;3.47;;;0.97;;
30233;SDS011;17046;52.074;4.748;2022-10-16T01:02:39;2.77;;;1.33;;
30233;SDS011;17046;52.074;4.748;2022-10-16T01:05:04;3.23;;;1.13;;
30233;SDS011;17046;52.074;4.748;2022-10-16T01:15:37;3.73;;;1.40;;
30233;SDS011;17046;52.074;4.748;2022-10-16T01:21:05;4.70;;;1.30;;
30233;SDS011;17046;52.074;4.748;2022-10-16T01:23:56;3.30;;;1.20;;
30233;SDS011;17046;52.074;4.748;2022-10-16T01:26:36;2.77;;;1.17;;
30233;SDS011;17046;52.074;4.748;2022-10-16T01:29:16;2.43;;;1.47;;
30233;SDS011;17046;52.074;4.748;2022-10-16T01:31:54;2.23;;;1.43;;
30233;SDS011;17046;52.074;4.748;2022-10-16T01:34:31;4.97;;;1.60;;
30233;SDS011;17046;52.074;4.748;2022-10-16T01:37:02;3.30;;;1.40;;
30233;SDS011;17046;52.074;4.748;2022-10-16T01:39:33;2.93;;;1.30;;
30233;SDS011;17046;52.074;4.748;2022-10-16T01:42:11;4.67;;;1.70;;
30233;SDS011;17046;52.074;4.748;2022-10-16T01:44:43;5.17;;;1.70;;
30233;SDS011;17046;52.074;4.748;2022-10-16T01:47:12;3.57;;;1.40;;
30233;SDS011;17046;52.074;4.748;2022-10-16T01:49:38;3.77;;;1.50;;
30233;SDS011;17046;52.074;4.748;2022-10-16T01:52:09;5.03;;;1.80;;
30233;SDS011;17046;52.074;4.748;2022-10-16T01:54:39;3.10;;;1.80;;
30233;SDS011;17046;52.074;4.748;2022-10-16T01:57:07;3.20;;;2.00;;
30233;SDS011;17046;52.074;4.748;2022-10-16T01:59:34;3.93;;;1.90;;
30233;SDS011;17046;52.074;4.748;2022-10-16T02:02:04;4.00;;;1.67;;
30233;SDS011;17046;52.074;4.748;2022-10-16T02:04:34;2.43;;;1.60;;
30233;SDS011;17046;52.074;4.748;2022-10-16T02:07:07;5.33;;;1.77;;
30233;SDS011;17046;52.074;4.748;2022-10-16T02:09:33;4.03;;;1.87;;
30233;SDS011;17046;52.074;4.748;2022-10-16T02:12:01;3.30;;;1.87;;
30233;SDS011;17046;52.074;4.748;2022-10-16T02:14:33;4.87;;;1.90;;
30233;SDS011;17046;52.074;4.748;2022-10-16T02:16:59;2.90;;;1.80;;
30233;SDS011;17046;52.074;4.748;2022-10-16T02:19:24;5.60;;;2.10;;
30233;SDS011;17046;52.074;4.748;2022-10-16T02:21:58;4.60;;;2.20;;
30233;SDS011;17046;52.074;4.748;2022-10-16T02:29:52;3.13;;;1.70;;
30233;SDS011;17046;52.074;4.748;2022-10-16T02:32:24;4.47;;;2.00;;
30233;SDS011;17046;52.074;4.748;2022-10-16T02:34:53;4.87;;;2.00;;
30233;SDS011;17046;52.074;4.748;2022-10-16T02:37:19;4.77;;;2.27;;
30233;SDS011;17046;52.074;4.748;2022-10-16T02:39:45;4.63;;;2.13;;
30233;SDS011;17046;52.074;4.748;2022-10-16T02:42:14;5.00;;;2.00;;
30233;SDS011;17046;52.074;4.748;2022-10-16T02:44:40;3.33;;;1.80;;
30233;SDS011;17046;52.074;4.748;2022-10-16T02:47:06;5.63;;;2.03;;
30233;SDS011;17046;52.074;4.748;2022-10-16T02:49:32;3.73;;;2.10;;
30233;SDS011;17046;52.074;4.748;2022-10-16T02:51:57;4.23;;;1.97;;
30233;SDS011;17046;52.074;4.748;2022-10-16T02:54:23;5.33;;;2.17;;
30233;SDS011;17046;52.074;4.748;2022-10-16T02:56:49;2.73;;;1.70;;
30233;SDS011;17046;52.074;4.748;2022-10-16T02:59:14;3.07;;;1.97;;
30233;SDS011;17046;52.074;4.748;2022-10-16T03:01:40;3.70;;;1.97;;
30233;SDS011;17046;52.074;4.748;2022-10-16T03:04:06;4.47;;;2.20;;
30233;SDS011;17046;52.074;4.748;2022-10-16T03:06:31;5.03;;;2.30;;
30233;SDS011;17046;52.074;4.748;2022-10-16T03:08:57;3.83;;;1.97;;
30233;SDS011;17046;52.074;4.748;2022-10-16T03:11:22;2.30;;;1.60;;
30233;SDS011;17046;52.074;4.748;2022-10-16T03:13:48;5.03;;;1.70;;
30233;SDS011;17046;52.074;4.748;2022-10-16T03:16:13;4.13;;;2.00;;
30233;SDS011;17046;52.074;4.748;2022-10-16T03:18:39;3.97;;;1.60;;
30233;SDS011;17046;52.074;4.748;2022-10-16T03:21:04;5.60;;;2.23;;
30233;SDS011;17046;52.074;4.748;2022-10-16T03:23:30;5.30;;;2.00;;
30233;SDS011;17046;52.074;4.748;2022-10-16T03:25:55;2.70;;;1.83;;
30233;SDS011;17046;52.074;4.748;2022-10-16T03:28:21;2.93;;;1.87;;
30233;SDS011;17046;52.074;4.748;2022-10-16T03:30:46;4.63;;;2.13;;
30233;SDS011;17046;52.074;4.748;2022-10-16T03:33:12;7.07;;;1.93;;
30233;SDS011;17046;52.074;4.748;2022-10-16T03:35:37;4.37;;;1.77;;
30233;SDS011;17046;52.074;4.748;2022-10-16T03:38:03;3.67;;;1.70;;
30233;SDS011;17046;52.074;4.748;2022-10-16T03:40:29;5.83;;;1.80;;
30233;SDS011;17046;52.074;4.748;2022-10-16T03:42:56;5.43;;;1.83;;
30233;SDS011;17046;52.074;4.748;2022-10-16T03:45:22;3.13;;;1.60;;
30233;SDS011;17046;52.074;4.748;2022-10-16T03:47:48;3.23;;;1.50;;
30233;SDS011;17046;52.074;4.748;2022-10-16T03:50:14;5.53;;;1.87;;
30233;SDS011;17046;52.074;4.748;2022-10-16T03:52:40;4.27;;;1.80;;
30233;SDS011;17046;52.074;4.748;2022-10-16T03:55:05;4.00;;;1.50;;
30233;SDS011;17046;52.074;4.748;2022-10-16T03:57:31;6.57;;;1.77;;
30233;SDS011;17046;52.074;4.748;2022-10-16T03:59:57;3.47;;;1.57;;
30233;SDS011;17046;52.074;4.748;2022-10-16T04:02:22;3.30;;;1.80;;
30233;SDS011;17046;52.074;4.748;2022-10-16T04:04:48;3.43;;;1.40;;
30233;SDS011;17046;52.074;4.748;2022-10-16T04:07:13;5.97;;;2.00;;
30233;SDS011;17046;52.074;4.748;2022-10-16T04:09:39;3.73;;;1.70;;
30233;SDS011;17046;52.074;4.748;2022-10-16T04:12:05;3.73;;;1.50;;
30233;SDS011;17046;52.074;4.748;2022-10-16T04:14:30;2.43;;;1.50;;
30233;SDS011;17046;52.074;4.748;2022-10-16T04:16:56;2.67;;;1.60;;
30233;SDS011;17046;52.074;4.748;2022-10-16T04:19:21;2.57;;;1.70;;
30233;SDS011;17046;52.074;4.748;2022-10-16T04:21:47;2.87;;;1.50;;
30233;SDS011;17046;52.074;4.748;2022-10-16T04:24:12;2.73;;;1.50;;
30233;SDS011;17046;52.074;4.748;2022-10-16T04:26:38;4.00;;;1.60;;
30233;SDS011;17046;52.074;4.748;2022-10-16T04:29:03;1.90;;;1.40;;
30233;SDS011;17046;52.074;4.748;2022-10-16T04:31:29;2.73;;;1.57;;
30233;SDS011;17046;52.074;4.748;2022-10-16T04:33:55;3.00;;;1.60;;
30233;SDS011;17046;52.074;4.748;2022-10-16T04:36:20;3.17;;;1.60;;
30233;SDS011;17046;52.074;4.748;2022-10-16T04:38:46;4.47;;;1.90;;
30233;SDS011;17046;52.074;4.748;2022-10-16T04:41:11;6.07;;;1.93;;
30233;SDS011;17046;52.074;4.748;2022-10-16T04:43:37;4.83;;;1.80;;
30233;SDS011;17046;52.074;4.748;2022-10-16T04:46:03;4.13;;;1.80;;
30233;SDS011;17046;52.074;4.748;2022-10-16T04:48:29;4.10;;;1.20;;
30233;SDS011;17046;52.074;4.748;2022-10-16T04:50:55;4.20;;;1.70;;
30233;SDS011;17046;52.074;4.748;2022-10-16T04:53:21;5.37;;;1.80;;
30233;SDS011;17046;52.074;4.748;2022-10-16T04:55:46;3.30;;;1.63;;
30233;SDS011;17046;52.074;4.748;2022-10-16T04:58:12;2.93;;;1.63;;
30233;SDS011;17046;52.074;4.748;2022-10-16T05:00:37;3.53;;;1.70;;
30233;SDS011;17046;52.074;4.748;2022-10-16T05:03:03;4.87;;;1.63;;
30233;SDS011;17046;52.074;4.748;2022-10-16T05:05:32;2.57;;;1.20;;
30233;SDS011;17046;52.074;4.748;2022-10-16T05:07:58;3.13;;;1.50;;
30233;SDS011;17046;52.074;4.748;2022-10-16T05:10:23;3.23;;;1.70;;
30233;SDS011;17046;52.074;4.748;2022-10-16T05:12:49;2.80;;;1.57;;
30233;SDS011;17046;52.074;4.748;2022-10-16T05:15:16;6.37;;;2.03;;
30233;SDS011;17046;52.074;4.748;2022-10-16T05:17:41;7.17;;;1.60;;
30233;SDS011;17046;52.074;4.748;2022-10-16T05:20:07;3.40;;;1.37;;
30233;SDS011;17046;52.074;4.748;2022-10-16T05:22:33;5.37;;;1.50;;
30233;SDS011;17046;52.074;4.748;2022-10-16T05:24:58;1.67;;;1.17;;
30233;SDS011;17046;52.074;4.748;2022-10-16T05:27:24;7.37;;;1.73;;
30233;SDS011;17046;52.074;4.748;2022-10-16T05:29:49;2.93;;;1.60;;
30233;SDS011;17046;52.074;4.748;2022-10-16T05:32:15;2.77;;;1.60;;
30233;SDS011;17046;52.074;4.748;2022-10-16T05:34:42;5.70;;;1.87;;
30233;SDS011;17046;52.074;4.748;2022-10-16T05:37:08;5.67;;;2.10;;
30233;SDS011;17046;52.074;4.748;2022-10-16T05:39:33;5.17;;;1.93;;
30233;SDS011;17046;52.074;4.748;2022-10-16T05:41:59;4.13;;;1.70;;
30233;SDS011;17046;52.074;4.748;2022-10-16T05:44:24;4.03;;;1.73;;
30233;SDS011;17046;52.074;4.748;2022-10-16T05:46:50;4.60;;;1.90;;
30233;SDS011;17046;52.074;4.748;2022-10-16T05:49:15;3.87;;;1.80;;
30233;SDS011;17046;52.074;4.748;2022-10-16T05:51:41;3.43;;;1.70;;
30233;SDS011;17046;52.074;4.748;2022-10-16T05:54:06;6.43;;;2.43;;
30233;SDS011;17046;52.074;4.748;2022-10-16T05:56:32;4.40;;;1.93;;
30233;SDS011;17046;52.074;4.748;2022-10-16T05:58:58;5.07;;;2.00;;
30233;SDS011;17046;52.074;4.748;2022-10-16T06:01:23;3.17;;;1.70;;
30233;SDS011;17046;52.074;4.748;2022-10-16T06:03:52;2.57;;;2.00;;
30233;SDS011;17046;52.074;4.748;2022-10-16T06:06:22;3.57;;;1.87;;
30233;SDS011;17046;52.074;4.748;2022-10-16T06:08:50;6.73;;;2.10;;
30233;SDS011;17046;52.074;4.748;2022-10-16T06:11:18;5.70;;;2.33;;
30233;SDS011;17046;52.074;4.748;2022-10-16T06:13:48;6.67;;;2.37;;
30233;SDS011;17046;52.074;4.748;2022-10-16T06:16:18;5.50;;;2.40;;
30233;SDS011;17046;52.074;4.748;2022-10-16T06:18:44;5.87;;;2.43;;
30233;SDS011;17046;52.074;4.748;2022-10-16T06:21:14;5.23;;;2.33;;
30233;SDS011;17046;52.074;4.748;2022-10-16T06:23:42;4.87;;;2.23;;
30233;SDS011;17046;52.074;4.748;2022-10-16T06:26:09;5.77;;;1.87;;
30233;SDS011;17046;52.074;4.748;2022-10-16T06:28:37;5.87;;;1.97;;
30233;SDS011;17046;52.074;4.748;2022-10-16T06:31:03;6.47;;;1.93;;
30233;SDS011;17046;52.074;4.748;2022-10-16T06:33:30;6.30;;;1.93;;
30233;SDS011;17046;52.074;4.748;2022-10-16T06:36:05;6.83;;;2.00;;
30233;SDS011;17046;52.074;4.748;2022-10-16T06:38:33;4.00;;;1.97;;
30233;SDS011;17046;52.074;4.748;2022-10-16T06:40:59;4.87;;;1.83;;
30233;SDS011;17046;52.074;4.748;2022-10-16T06:43:25;4.73;;;1.70;;
30233;SDS011;17046;52.074;4.748;2022-10-16T06:45:55;4.83;;;1.70;;
30233;SDS011;17046;52.074;4.748;2022-10-16T06:48:22;7.43;;;1.50;;
30233;SDS011;17046;52.074;4.748;2022-10-16T06:51:08;7.13;;;1.53;;
30233;SDS011;17046;52.074;4.748;2022-10-16T06:53:36;8.07;;;1.27;;
30233;SDS011;17046;52.074;4.748;2022-10-16T06:56:06;5.57;;;1.30;;
30233;SDS011;17046;52.074;4.748;2022-10-16T06:58:33;4.43;;;1.10;;
30233;SDS011;17046;52.074;4.748;2022-10-16T07:00:59;3.80;;;1.20;;
30233;SDS011;17046;52.074;4.748;2022-10-16T07:03:24;6.17;;;1.50;;
30233;SDS011;17046;52.074;4.748;2022-10-16T07:05:50;5.83;;;1.20;;
30233;SDS011;17046;52.074;4.748;2022-10-16T07:08:15;4.73;;;1.00;;
30233;SDS011;17046;52.074;4.748;2022-10-16T07:10:41;4.37;;;0.90;;
30233;SDS011;17046;52.074;4.748;2022-10-16T07:13:07;7.73;;;1.17;;
30233;SDS011;17046;52.074;4.748;2022-10-16T07:15:32;4.50;;;0.93;;
30233;SDS011;17046;52.074;4.748;2022-10-16T07:17:58;3.80;;;1.10;;
30233;SDS011;17046;52.074;4.748;2022-10-16T07:20:24;2.57;;;1.10;;
30233;SDS011;17046;52.074;4.748;2022-10-16T07:22:50;2.57;;;1.10;;
30233;SDS011;17046;52.074;4.748;2022-10-16T07:25:16;7.60;;;1.53;;
30233;SDS011;17046;52.074;4.748;2022-10-16T07:27:42;5.53;;;1.43;;
30233;SDS011;17046;52.074;4.748;2022-10-16T07:30:08;7.10;;;1.50;;
30233;SDS011;17046;52.074;4.748;2022-10-16T07:32:34;4.83;;;1.30;;
30233;SDS011;17046;52.074;4.748;2022-10-16T07:34:59;5.50;;;1.30;;
30233;SDS011;17046;52.074;4.748;2022-10-16T07:37:25;6.43;;;1.50;;
30233;SDS011;17046;52.074;4.748;2022-10-16T07:39:50;4.93;;;1.23;;
30233;SDS011;17046;52.074;4.748;2022-10-16T07:42:16;6.40;;;1.57;;
30233;SDS011;17046;52.074;4.748;2022-10-16T07:44:42;3.53;;;1.50;;
30233;SDS011;17046;52.074;4.748;2022-10-16T07:47:07;4.27;;;1.50;;
30233;SDS011;17046;52.074;4.748;2022-10-16T07:49:34;6.90;;;2.17;;
30233;SDS011;17046;52.074;4.748;2022-10-16T07:51:59;5.07;;;1.60;;
30233;SDS011;17046;52.074;4.748;2022-10-16T07:54:25;7.83;;;2.30;;
30233;SDS011;17046;52.074;4.748;2022-10-16T07:56:51;6.87;;;1.70;;
30233;SDS011;17046;52.074;4.748;2022-10-16T07:59:16;3.70;;;1.40;;
30233;SDS011;17046;52.074;4.748;2022-10-16T08:01:42;6.20;;;1.30;;
30233;SDS011;17046;52.074;4.748;2022-10-16T08:04:08;5.10;;;1.60;;
30233;SDS011;17046;52.074;4.748;2022-10-16T08:06:38;3.90;;;1.47;;
30233;SDS011;17046;52.074;4.748;2022-10-16T08:09:04;6.17;;;1.50;;
30233;SDS011;17046;52.074;4.748;2022-10-16T08:11:31;9.17;;;1.97;;
30233;SDS011;17046;52.074;4.748;2022-10-16T08:13:57;7.73;;;1.83;;
30233;SDS011;17046;52.074;4.748;2022-10-16T08:16:22;8.40;;;1.87;;
30233;SDS011;17046;52.074;4.748;2022-10-16T08:18:48;6.23;;;1.73;;
30233;SDS011;17046;52.074;4.748;2022-10-16T08:21:16;6.30;;;1.70;;
30233;SDS011;17046;52.074;4.748;2022-10-16T08:23:43;7.83;;;1.90;;
30233;SDS011;17046;52.074;4.748;2022-10-16T08:26:09;8.10;;;1.43;;
30233;SDS011;17046;52.074;4.748;2022-10-16T08:28:36;5.73;;;1.57;;
30233;SDS011;17046;52.074;4.748;2022-10-16T08:31:20;4.40;;;1.20;;
30233;SDS011;17046;52.074;4.748;2022-10-16T08:33:46;5.73;;;1.67;;
30233;SDS011;17046;52.074;4.748;2022-10-16T08:36:13;5.30;;;1.40;;
30233;SDS011;17046;52.074;4.748;2022-10-16T08:38:40;6.60;;;1.40;;
30233;SDS011;17046;52.074;4.748;2022-10-16T08:41:13;10.50;;;1.53;;
30233;SDS011;17046;52.074;4.748;2022-10-16T08:49:37;7.50;;;1.67;;
30233;SDS011;17046;52.074;4.748;2022-10-16T08:52:10;8.63;;;1.80;;
30233;SDS011;17046;52.074;4.748;2022-10-16T08:54:41;7.17;;;1.70;;
30233;SDS011;17046;52.074;4.748;2022-10-16T08:57:11;9.27;;;1.77;;
30233;SDS011;17046;52.074;4.748;2022-10-16T08:59:45;7.97;;;1.70;;
30233;SDS011;17046;52.074;4.748;2022-10-16T09:08:14;6.57;;;2.00;;
30233;SDS011;17046;52.074;4.748;2022-10-16T09:11:03;8.00;;;1.93;;
30233;SDS011;17046;52.074;4.748;2022-10-16T09:16:44;10.13;;;1.90;;
30233;SDS011;17046;52.074;4.748;2022-10-16T09:19:17;6.43;;;1.80;;
30233;SDS011;17046;52.074;4.748;2022-10-16T09:21:50;8.10;;;1.97;;
30233;SDS011;17046;52.074;4.748;2022-10-16T09:24:18;10.30;;;1.73;;
30233;SDS011;17046;52.074;4.748;2022-10-16T09:26:46;11.93;;;2.10;;
30233;SDS011;17046;52.074;4.748;2022-10-16T09:29:12;14.03;;;2.43;;
30233;SDS011;17046;52.074;4.748;2022-10-16T09:31:39;9.47;;;1.80;;
30233;SDS011;17046;52.074;4.748;2022-10-16T09:34:05;9.33;;;1.90;;
30233;SDS011;17046;52.074;4.748;2022-10-16T09:36:39;7.63;;;2.43;;
30233;SDS011;17046;52.074;4.748;2022-10-16T09:39:08;11.77;;;2.03;;
30233;SDS011;17046;52.074;4.748;2022-10-16T09:41:37;8.73;;;1.80;;
30233;SDS011;17046;52.074;4.748;2022-10-16T09:44:06;10.83;;;1.80;;
30233;SDS011;17046;52.074;4.748;2022-10-16T09:47:00;11.57;;;2.00;;
30233;SDS011;17046;52.074;4.748;2022-10-16T09:49:30;9.23;;;1.70;;
30233;SDS011;17046;52.074;4.748;2022-10-16T09:54:36;11.23;;;2.10;;
30233;SDS011;17046;52.074;4.748;2022-10-16T09:57:05;10.17;;;1.80;;
30233;SDS011;17046;52.074;4.748;2022-10-16T09:59:32;8.67;;;1.73;;
30233;SDS011;17046;52.074;4.748;2022-10-16T10:02:00;13.00;;;1.98;;
30233;SDS011;17046;52.074;4.748;2022-10-16T10:04:37;13.23;;;2.00;;
30233;SDS011;17046;52.074;4.748;2022-10-16T10:07:06;10.13;;;2.13;;
30233;SDS011;17046;52.074;4.748;2022-10-16T10:09:42;11.50;;;2.67;;
30233;SDS011;17046;52.074;4.748;2022-10-16T10:12:20;9.20;;;1.77;;
30233;SDS011;17046;52.074;4.748;2022-10-16T10:14:47;10.37;;;2.13;;
30233;SDS011;17046;52.074;4.748;2022-10-16T10:17:23;10.67;;;1.90;;
30233;SDS011;17046;52.074;4.748;2022-10-16T10:19:54;10.03;;;2.20;;
30233;SDS011;17046;52.074;4.748;2022-10-16T10:22:43;9.43;;;1.73;;
30233;SDS011;17046;52.074;4.748;2022-10-16T10:35:45;16.80;;;2.70;;
30233;SDS011;17046;52.074;4.748;2022-10-16T10:41:09;15.17;;;2.20;;
30233;SDS011;17046;52.074;4.748;2022-10-16T10:46:42;9.90;;;1.90;;
30233;SDS011;17046;52.074;4.748;2022-10-16T10:50:06;9.67;;;1.70;;
30233;SDS011;17046;52.074;4.748;2022-10-16T10:58:01;11.27;;;1.73;;
30233;SDS011;17046;52.074;4.748;2022-10-16T11:06:22;9.47;;;1.60;;
30233;SDS011;17046;52.074;4.748;2022-10-16T11:09:13;12.50;;;1.87;;
30233;SDS011;17046;52.074;4.748;2022-10-16T11:11:47;7.90;;;1.63;;
30233;SDS011;17046;52.074;4.748;2022-10-16T11:16:56;9.83;;;1.83;;
30233;SDS011;17046;52.074;4.748;2022-10-16T11:19:37;11.57;;;1.60;;
30233;SDS011;17046;52.074;4.748;2022-10-16T11:22:25;7.63;;;1.50;;
30233;SDS011;17046;52.074;4.748;2022-10-16T11:30:05;9.77;;;1.80;;
30233;SDS011;17046;52.074;4.748;2022-10-16T11:33:03;7.30;;;1.50;;
30233;SDS011;17046;52.074;4.748;2022-10-16T11:35:43;6.97;;;1.70;;
30233;SDS011;17046;52.074;4.748;2022-10-16T11:38:26;12.97;;;1.40;;
30233;SDS011;17046;52.074;4.748;2022-10-16T11:41:07;8.00;;;1.73;;
30233;SDS011;17046;52.074;4.748;2022-10-16T11:43:43;10.50;;;1.70;;
30233;SDS011;17046;52.074;4.748;2022-10-16T11:46:19;11.83;;;1.83;;
30233;SDS011;17046;52.074;4.748;2022-10-16T11:48:53;8.67;;;1.57;;
30233;SDS011;17046;52.074;4.748;2022-10-16T11:51:42;7.40;;;1.37;;
30233;SDS011;17046;52.074;4.748;2022-10-16T11:57:01;9.30;;;1.47;;
30233;SDS011;17046;52.074;4.748;2022-10-16T12:02:27;7.97;;;1.80;;
30233;SDS011;17046;52.074;4.748;2022-10-16T12:05:06;10.20;;;1.40;;
30233;SDS011;17046;52.074;4.748;2022-10-16T12:10:33;12.40;;;2.20;;
30233;SDS011;17046;52.074;4.748;2022-10-16T12:13:02;8.03;;;1.67;;
30233;SDS011;17046;52.074;4.748;2022-10-16T12:15:30;13.17;;;2.30;;
30233;SDS011;17046;52.074;4.748;2022-10-16T12:17:58;8.00;;;1.93;;
30233;SDS011;17046;52.074;4.748;2022-10-16T12:20:30;7.07;;;1.60;;
30233;SDS011;17046;52.074;4.748;2022-10-16T12:25:44;11.43;;;1.90;;
30233;SDS011;17046;52.074;4.748;2022-10-16T12:28:19;9.13;;;1.87;;
30233;SDS011;17046;52.074;4.748;2022-10-16T12:30:53;9.00;;;1.60;;
30233;SDS011;17046;52.074;4.748;2022-10-16T12:33:24;6.10;;;1.50;;
30233;SDS011;17046;52.074;4.748;2022-10-16T12:36:02;10.07;;;1.67;;
30233;SDS011;17046;52.074;4.748;2022-10-16T12:38:37;9.60;;;1.97;;
30233;SDS011;17046;52.074;4.748;2022-10-16T12:41:11;12.87;;;1.70;;
30233;SDS011;17046;52.074;4.748;2022-10-16T12:48:35;11.77;;;1.77;;
30233;SDS011;17046;52.074;4.748;2022-10-16T12:51:11;9.50;;;1.93;;
30233;SDS011;17046;52.074;4.748;2022-10-16T12:53:37;8.40;;;1.30;;
30233;SDS011;17046;52.074;4.748;2022-10-16T13:03:48;14.47;;;3.30;;
30233;SDS011;17046;52.074;4.748;2022-10-16T13:12:02;12.27;;;1.60;;
30233;SDS011;17046;52.074;4.748;2022-10-16T13:25:43;9.67;;;1.50;;
30233;SDS011;17046;52.074;4.748;2022-10-16T13:28:22;11.47;;;1.57;;
30233;SDS011;17046;52.074;4.748;2022-10-16T13:30:55;7.93;;;1.50;;
30233;SDS011;17046;52.074;4.748;2022-10-16T13:36:02;10.55;;;1.77;;
30233;SDS011;17046;52.074;4.748;2022-10-16T13:38:30;12.93;;;2.20;;
30233;SDS011;17046;52.074;4.748;2022-10-16T13:40:58;13.63;;;1.83;;
30233;SDS011;17046;52.074;4.748;2022-10-16T13:43:36;13.90;;;1.80;;
30233;SDS011;17046;52.074;4.748;2022-10-16T13:49:04;11.33;;;2.03;;
30233;SDS011;17046;52.074;4.748;2022-10-16T13:51:36;12.97;;;2.63;;
30233;SDS011;17046;52.074;4.748;2022-10-16T13:54:02;8.10;;;1.70;;
30233;SDS011;17046;52.074;4.748;2022-10-16T13:56:29;10.85;;;1.83;;
30233;SDS011;17046;52.074;4.748;2022-10-16T14:01:50;10.23;;;2.10;;
30233;SDS011;17046;52.074;4.748;2022-10-16T14:04:16;8.30;;;1.60;;
30233;SDS011;17046;52.074;4.748;2022-10-16T14:06:43;11.90;;;1.90;;
30233;SDS011;17046;52.074;4.748;2022-10-16T14:09:21;8.67;;;1.73;;
30233;SDS011;17046;52.074;4.748;2022-10-16T14:11:51;9.63;;;1.57;;
30233;SDS011;17046;52.074;4.748;2022-10-16T14:14:43;13.97;;;1.87;;
30233;SDS011;17046;52.074;4.748;2022-10-16T14:17:23;13.90;;;2.33;;
30233;SDS011;17046;52.074;4.748;2022-10-16T14:19:52;12.55;;;1.55;;
30233;SDS011;17046;52.074;4.748;2022-10-16T14:22:31;13.43;;;1.77;;
30233;SDS011;17046;52.074;4.748;2022-10-16T14:25:20;12.05;;;2.13;;
30233;SDS011;17046;52.074;4.748;2022-10-16T14:28:00;12.17;;;1.87;;
30233;SDS011;17046;52.074;4.748;2022-10-16T14:30:27;10.30;;;1.70;;
30233;SDS011;17046;52.074;4.748;2022-10-16T14:32:55;9.47;;;1.70;;
30233;SDS011;17046;52.074;4.748;2022-10-16T14:35:27;11.63;;;1.80;;
30233;SDS011;17046;52.074;4.748;2022-10-16T14:37:58;11.50;;;1.98;;
30233;SDS011;17046;52.074;4.748;2022-10-16T14:40:26;7.57;;;1.50;;
30233;SDS011;17046;52.074;4.748;2022-10-16T14:42:56;9.75;;;1.77;;
30233;SDS011;17046;52.074;4.748;2022-10-16T14:45:27;12.93;;;2.08;;
30233;SDS011;17046;52.074;4.748;2022-10-16T14:47:58;8.15;;;1.60;;
30233;SDS011;17046;52.074;4.748;2022-10-16T14:50:25;9.37;;;2.80;;
30233;SDS011;17046;52.074;4.748;2022-10-16T14:52:51;11.57;;;1.88;;
30233;SDS011;17046;52.074;4.748;2022-10-16T14:55:17;13.03;;;1.87;;
30233;SDS011;17046;52.074;4.748;2022-10-16T14:57:44;8.90;;;1.90;;
30233;SDS011;17046;52.074;4.748;2022-10-16T15:00:15;12.05;;;2.28;;
30233;SDS011;17046;52.074;4.748;2022-10-16T15:02:46;12.77;;;2.08;;
30233;SDS011;17046;52.074;4.748;2022-10-16T15:05:15;10.90;;;1.70;;
30233;SDS011;17046;52.074;4.748;2022-10-16T15:07:43;10.77;;;2.00;;
30233;SDS011;17046;52.074;4.748;2022-10-16T15:10:10;14.77;;;1.77;;
30233;SDS011;17046;52.074;4.748;2022-10-16T15:12:37;12.10;;;1.87;;
30233;SDS011;17046;52.074;4.748;2022-10-16T15:15:09;9.40;;;1.40;;
30233;SDS011;17046;52.074;4.748;2022-10-16T15:17:46;8.73;;;2.00;;
30233;SDS011;17046;52.074;4.748;2022-10-16T15:20:13;16.27;;;4.97;;
30233;SDS011;17046;52.074;4.748;2022-10-16T15:22:38;11.40;;;2.37;;
30233;SDS011;17046;52.074;4.748;2022-10-16T15:25:27;11.27;;;1.80;;
30233;SDS011;17046;52.074;4.748;2022-10-16T15:27:54;7.70;;;2.17;;
30233;SDS011;17046;52.074;4.748;2022-10-16T15:30:20;10.17;;;1.80;;
30233;SDS011;17046;52.074;4.748;2022-10-16T15:32:46;8.90;;;1.70;;
30233;SDS011;17046;52.074;4.748;2022-10-16T15:35:12;9.43;;;1.83;;
30233;SDS011;17046;52.074;4.748;2022-10-16T15:37:37;13.50;;;2.15;;
30233;SDS011;17046;52.074;4.748;2022-10-16T15:40:03;10.13;;;1.80;;
30233;SDS011;17046;52.074;4.748;2022-10-16T15:42:29;9.73;;;1.83;;
30233;SDS011;17046;52.074;4.748;2022-10-16T15:44:54;10.87;;;2.00;;
30233;SDS011;17046;52.074;4.748;2022-10-16T15:47:20;7.47;;;1.90;;
30233;SDS011;17046;52.074;4.748;2022-10-16T15:49:46;13.77;;;1.73;;
30233;SDS011;17046;52.074;4.748;2022-10-16T15:52:12;9.10;;;1.93;;
30233;SDS011;17046;52.074;4.748;2022-10-16T15:54:37;7.77;;;1.53;;
30233;SDS011;17046;52.074;4.748;2022-10-16T15:57:03;10.73;;;1.50;;
30233;SDS011;17046;52.074;4.748;2022-10-16T15:59:28;9.67;;;1.73;;
30233;SDS011;17046;52.074;4.748;2022-10-16T16:01:55;11.07;;;1.93;;
30233;SDS011;17046;52.074;4.748;2022-10-16T16:04:20;8.23;;;1.73;;
30233;SDS011;17046;52.074;4.748;2022-10-16T16:06:46;9.50;;;2.00;;
30233;SDS011;17046;52.074;4.748;2022-10-16T16:09:12;13.60;;;1.90;;
30233;SDS011;17046;52.074;4.748;2022-10-16T16:11:38;9.73;;;2.03;;
30233;SDS011;17046;52.074;4.748;2022-10-16T16:14:05;19.03;;;3.83;;
30233;SDS011;17046;52.074;4.748;2022-10-16T16:16:31;21.37;;;6.10;;
30233;SDS011;17046;52.074;4.748;2022-10-16T16:19:02;18.53;;;4.73;;
30233;SDS011;17046;52.074;4.748;2022-10-16T16:21:28;17.23;;;4.07;;
30233;SDS011;17046;52.074;4.748;2022-10-16T16:23:54;14.37;;;3.00;;
30233;SDS011;17046;52.074;4.748;2022-10-16T16:26:26;16.33;;;3.60;;
30233;SDS011;17046;52.074;4.748;2022-10-16T16:29:00;14.30;;;3.53;;
30233;SDS011;17046;52.074;4.748;2022-10-16T16:31:27;16.80;;;3.87;;
30233;SDS011;17046;52.074;4.748;2022-10-16T16:33:54;17.00;;;4.63;;
30233;SDS011;17046;52.074;4.748;2022-10-16T16:36:20;8.57;;;3.60;;
30233;SDS011;17046;52.074;4.748;2022-10-16T16:38:46;15.97;;;3.77;;
30233;SDS011;17046;52.074;4.748;2022-10-16T16:41:16;10.77;;;3.60;;
30233;SDS011;17046;52.074;4.748;2022-10-16T16:43:46;12.20;;;3.27;;
30233;SDS011;17046;52.074;4.748;2022-10-16T16:46:13;12.63;;;2.90;;
30233;SDS011;17046;52.074;4.748;2022-10-16T16:48:39;9.27;;;2.50;;
30233;SDS011;17046;52.074;4.748;2022-10-16T16:51:06;13.00;;;2.90;;
30233;SDS011;17046;52.074;4.748;2022-10-16T16:53:34;14.20;;;2.47;;
30233;SDS011;17046;52.074;4.748;2022-10-16T16:56:01;17.17;;;4.10;;